Salem, Michigan
Current Conditions -  °F | °C
As of 2:53 PM on Monday 22 Dec 2014 (Local Time) from KYIP Reporting Station
Overcast Overcast  
Wind Chill: 37°   Ceiling: 10000
Heat Index: 42°   Visibility: 10mi
Dew Point: 29°   Wind: 9mph
Humidity: 60%   Direction: 80°E
Pressure: 29.93"   Gusts: NA
Location:  42.41°N, 83.58°W
Report Text: KYIP 221953Z 08008KT 10SM OVC100 06/M02 A2993 RMK AO2 SLP140 T00561017
Loading
Personal Weather Stations






























Interactive Weather Map New forecast layout! Learn more

10-Day Weather Forecast

Advertisements
Track Severe Weather on mobile